Time;durP1;ratioP1;P1;durP2;ratioP2;P2;SDS_P1;SDS_P2;PMS_P1;PMS_P2;Temp;Humidity;BMP_temperature;BMP_pressure;BME280_temperature;BME280_humidity;BME280_pressure;Samples;Min_cycle;Max_cycle;Signal;HPM_P1;HPM_P2
2023/06/16 00:01:41;;;;;;;11.70;3.72;;;18.10;63.80;;;;;;4943472;28;88411;-77
2023/06/16 00:04:08;;;;;;;5.75;3.55;;;18.00;64.40;;;;;;4938437;28;87460;-77
2023/06/16 00:06:33;;;;;;;7.00;3.63;;;17.90;65.70;;;;;;4936838;28;90839;-77
2023/06/16 00:09:00;;;;;;;7.40;3.80;;;17.90;64.50;;;;;;4937599;28;89349;-78
2023/06/16 00:11:29;;;;;;;4.93;3.67;;;17.80;64.80;;;;;;4939173;28;88847;-77
2023/06/16 00:13:56;;;;;;;9.20;4.30;;;17.70;65.20;;;;;;4937854;28;87435;-77
2023/06/16 00:16:23;;;;;;;5.20;3.28;;;17.60;66.10;;;;;;4927808;28;88024;-77
2023/06/16 00:18:51;;;;;;;6.72;4.60;;;17.50;65.80;;;;;;4937959;28;89298;-78
2023/06/16 00:21:35;;;;;;;4.07;3.38;;;17.50;67.30;;;;;;4927345;28;91015;-78
2023/06/16 00:24:01;;;;;;;6.63;3.55;;;17.40;67.60;;;;;;4929642;28;87478;-77
2023/06/16 00:26:28;;;;;;;7.32;3.67;;;17.30;67.80;;;;;;4937195;28;90692;-77
2023/06/16 00:28:53;;;;;;;5.63;3.50;;;17.20;68.40;;;;;;4937902;28;88498;-77
2023/06/16 00:31:19;;;;;;;6.70;4.00;;;17.10;68.70;;;;;;4937119;28;88498;-77
2023/06/16 00:33:45;;;;;;;7.85;3.67;;;17.00;69.40;;;;;;4936035;28;87811;-77
2023/06/16 00:36:10;;;;;;;6.00;4.07;;;16.90;68.50;;;;;;4937723;28;87042;-77
2023/06/16 00:38:36;;;;;;;8.20;3.90;;;16.90;68.90;;;;;;4938224;28;88556;-77
2023/06/16 00:41:02;;;;;;;5.68;3.78;;;16.70;69.80;;;;;;4938174;28;88286;-78
2023/06/16 00:43:27;;;;;;;6.63;4.22;;;16.70;69.80;;;;;;4937287;28;88565;-77
2023/06/16 00:45:53;;;;;;;7.43;3.83;;;16.60;71.50;;;;;;4937614;28;87365;-77
2023/06/16 00:48:19;;;;;;;12.10;4.35;;;16.60;70.80;;;;;;4936466;28;88820;-77
2023/06/16 00:50:45;;;;;;;5.82;3.95;;;16.50;72.60;;;;;;4937329;28;88368;-78
2023/06/16 00:53:11;;;;;;;9.00;3.60;;;16.40;72.50;;;;;;4938472;28;87473;-77
2023/06/16 00:55:37;;;;;;;7.20;3.70;;;16.40;72.60;;;;;;4937035;28;87897;-77
2023/06/16 00:58:03;;;;;;;5.53;3.55;;;16.30;72.60;;;;;;4925279;28;89985;-78
2023/06/16 01:00:32;;;;;;;6.57;3.67;;;16.20;73.40;;;;;;4937194;28;88014;-76
2023/06/16 01:02:57;;;;;;;5.15;4.25;;;16.20;72.70;;;;;;4937431;28;87568;-78
2023/06/16 01:05:24;;;;;;;6.43;4.50;;;16.10;73.10;;;;;;4937979;28;88257;-78
2023/06/16 01:08:01;;;;;;;5.75;4.07;;;16.10;73.60;;;;;;4936043;28;89137;-78
2023/06/16 01:11:02;;;;;;;5.70;3.95;;;16.00;73.10;;;;;;4937646;28;88021;-77
2023/06/16 01:14:22;;;;;;;10.38;4.30;;;16.00;73.80;;;;;;4937768;28;87677;-78
2023/06/16 01:16:51;;;;;;;7.05;4.40;;;16.00;74.00;;;;;;4899653;28;87623;-76
2023/06/16 01:19:43;;;;;;;6.07;4.13;;;15.90;74.00;;;;;;4937033;28;88564;-77
2023/06/16 01:22:30;;;;;;;5.75;3.75;;;15.80;74.20;;;;;;4936402;28;88300;-77
2023/06/16 01:24:59;;;;;;;7.63;3.70;;;15.70;75.00;;;;;;4937191;28;87485;-78
2023/06/16 01:27:29;;;;;;;5.53;4.05;;;15.70;75.30;;;;;;4942552;28;87435;-77
2023/06/16 01:29:56;;;;;;;9.68;4.30;;;15.60;76.60;;;;;;4937069;28;88149;-77
2023/06/16 01:32:24;;;;;;;5.93;3.75;;;15.50;76.30;;;;;;4936416;28;91288;-77
2023/06/16 01:34:51;;;;;;;10.02;4.22;;;15.40;75.90;;;;;;4935873;28;88448;-77
2023/06/16 01:37:19;;;;;;;7.95;4.40;;;15.40;76.10;;;;;;4937089;28;87451;-77
2023/06/16 01:39:46;;;;;;;4.68;3.80;;;15.30;75.50;;;;;;4936462;28;89568;-77
2023/06/16 01:42:14;;;;;;;8.10;4.22;;;15.30;77.10;;;;;;4936495;28;88206;-77
2023/06/16 01:44:41;;;;;;;7.53;4.72;;;15.20;76.00;;;;;;4936322;28;87443;-77
2023/06/16 01:47:08;;;;;;;5.07;4.25;;;15.20;77.30;;;;;;4935653;28;92509;-78
2023/06/16 01:49:34;;;;;;;5.40;3.92;;;15.10;78.60;;;;;;4936508;28;88603;-78
2023/06/16 01:52:00;;;;;;;4.88;4.20;;;15.00;77.40;;;;;;4936713;28;88648;-77
2023/06/16 01:54:26;;;;;;;6.40;4.43;;;15.00;78.20;;;;;;4935677;28;87522;-77
2023/06/16 01:56:52;;;;;;;6.47;4.20;;;15.00;77.90;;;;;;4936209;28;87793;-77
2023/06/16 01:59:17;;;;;;;7.53;4.10;;;14.90;79.70;;;;;;4936591;28;89548;-77
2023/06/16 02:01:50;;;;;;;5.53;4.32;;;14.90;78.30;;;;;;4935891;28;88930;-78
2023/06/16 02:04:20;;;;;;;8.80;4.53;;;14.80;78.30;;;;;;4936444;28;87582;-77
2023/06/16 02:06:55;;;;;;;6.13;3.78;;;14.80;79.80;;;;;;4935616;28;88244;-77
2023/06/16 02:09:22;;;;;;;11.82;4.10;;;14.70;80.40;;;;;;4936043;28;89225;-77
2023/06/16 02:11:51;;;;;;;13.27;4.15;;;14.60;80.10;;;;;;4935920;28;88068;-78
2023/06/16 02:14:18;;;;;;;5.22;4.03;;;14.60;81.10;;;;;;4935984;28;87901;-77
2023/06/16 02:16:44;;;;;;;10.45;4.65;;;14.60;80.70;;;;;;4936411;28;88491;-77
2023/06/16 02:19:11;;;;;;;7.63;4.10;;;14.50;81.50;;;;;;4935535;28;88616;-77
2023/06/16 02:21:38;;;;;;;7.93;4.68;;;14.40;81.90;;;;;;4935956;28;88009;-77
2023/06/16 02:24:04;;;;;;;6.90;4.00;;;14.30;82.30;;;;;;4935461;28;88510;-77
2023/06/16 02:26:31;;;;;;;6.32;4.30;;;14.20;81.90;;;;;;4936771;28;87880;-77
2023/06/16 02:28:57;;;;;;;6.57;4.68;;;14.20;82.40;;;;;;4933769;28;91763;-77
2023/06/16 02:31:23;;;;;;;6.88;4.65;;;14.20;82.80;;;;;;4935536;28;88507;-77
2023/06/16 02:33:51;;;;;;;7.40;4.60;;;14.10;83.40;;;;;;4935794;28;87902;-77
2023/06/16 02:36:17;;;;;;;7.95;4.75;;;14.10;83.30;;;;;;4927074;28;90660;-77
2023/06/16 02:38:43;;;;;;;6.95;4.80;;;14.00;84.40;;;;;;4936614;28;88975;-77
2023/06/16 02:41:09;;;;;;;5.95;4.70;;;14.00;84.40;;;;;;4940354;28;87065;-77
2023/06/16 02:43:34;;;;;;;8.43;5.40;;;13.90;83.90;;;;;;4929415;28;87696;-77
2023/06/16 02:46:01;;;;;;;7.43;4.50;;;13.90;84.30;;;;;;4939317;28;87833;-77
2023/06/16 02:48:27;;;;;;;9.07;5.05;;;13.80;84.10;;;;;;4939435;28;89599;-77
2023/06/16 02:50:53;;;;;;;7.95;4.53;;;13.80;86.50;;;;;;4939737;28;89344;-77
2023/06/16 02:53:19;;;;;;;6.25;4.97;;;13.70;85.20;;;;;;4940106;28;87825;-77
2023/06/16 02:55:46;;;;;;;6.50;4.55;;;13.70;86.30;;;;;;4938779;28;87822;-78
2023/06/16 02:58:12;;;;;;;10.63;5.57;;;13.60;86.10;;;;;;4939239;28;89177;-77
2023/06/16 03:00:38;;;;;;;7.95;5.55;;;13.60;86.50;;;;;;4936437;28;88335;-77
2023/06/16 03:03:05;;;;;;;9.10;5.07;;;13.50;86.00;;;;;;4947363;28;87662;-77
2023/06/16 03:05:31;;;;;;;8.05;4.80;;;13.50;87.90;;;;;;4939827;28;86912;-77
2023/06/16 03:07:57;;;;;;;7.72;4.63;;;13.50;87.20;;;;;;4938072;28;89933;-77
2023/06/16 03:10:23;;;;;;;8.57;5.05;;;13.40;86.50;;;;;;4938753;28;87975;-78
2023/06/16 03:12:48;;;;;;;6.75;4.65;;;13.40;87.10;;;;;;4938648;28;88206;-77
2023/06/16 03:15:15;;;;;;;7.70;4.53;;;13.40;86.60;;;;;;4945443;28;88591;-78
2023/06/16 03:17:42;;;;;;;9.30;5.20;;;13.40;86.90;;;;;;4939511;28;88701;-77
2023/06/16 03:20:09;;;;;;;8.82;5.15;;;13.30;88.10;;;;;;4938507;28;92764;-77
2023/06/16 03:22:35;;;;;;;6.63;4.88;;;13.20;87.40;;;;;;4939731;28;87636;-78
2023/06/16 03:25:02;;;;;;;11.40;5.20;;;13.20;88.00;;;;;;4938805;28;87736;-77
2023/06/16 03:27:31;;;;;;;8.57;5.30;;;13.20;87.60;;;;;;4939236;28;88256;-77
2023/06/16 03:29:57;;;;;;;8.02;5.40;;;13.10;89.20;;;;;;4939125;28;94520;-77
2023/06/16 03:32:23;;;;;;;9.00;5.95;;;13.10;89.40;;;;;;4938850;28;87646;-78
2023/06/16 03:34:49;;;;;;;8.27;6.32;;;13.00;89.00;;;;;;4939049;28;87121;-77
2023/06/16 03:37:15;;;;;;;13.07;6.60;;;13.00;90.10;;;;;;4938746;28;89663;-77
2023/06/16 03:39:41;;;;;;;10.75;6.65;;;13.00;90.40;;;;;;4938223;28;89078;-77
2023/06/16 03:42:07;;;;;;;6.55;4.55;;;13.00;90.60;;;;;;4938453;28;87688;-77
2023/06/16 03:44:33;;;;;;;8.10;5.80;;;12.90;90.70;;;;;;4938685;28;89339;-78
2023/06/16 03:46:58;;;;;;;8.95;4.68;;;12.90;90.60;;;;;;4938352;28;88444;-77
2023/06/16 03:49:24;;;;;;;9.25;5.00;;;12.90;90.10;;;;;;4938895;28;89024;-78
2023/06/16 03:51:50;;;;;;;6.95;5.30;;;12.90;90.20;;;;;;4937832;28;87714;-77
2023/06/16 03:54:17;;;;;;;7.90;5.30;;;12.90;90.50;;;;;;4933177;28;87492;-77
2023/06/16 03:56:43;;;;;;;6.85;5.03;;;13.00;90.30;;;;;;4949204;28;89455;-78
2023/06/16 03:59:08;;;;;;;9.07;5.25;;;12.90;90.40;;;;;;4939652;28;88374;-78
2023/06/16 04:01:36;;;;;;;7.05;5.30;;;12.90;90.60;;;;;;4938019;28;89027;-78
2023/06/16 04:04:02;;;;;;;11.98;6.25;;;12.90;91.00;;;;;;4937830;28;90546;-77
2023/06/16 04:06:28;;;;;;;9.20;5.22;;;12.90;90.20;;;;;;4938284;28;88387;-77
2023/06/16 04:08:56;;;;;;;10.25;5.70;;;13.00;90.20;;;;;;4938457;28;88985;-77
2023/06/16 04:11:23;;;;;;;9.85;5.18;;;13.00;90.80;;;;;;4939143;28;87669;-77
2023/06/16 04:13:48;;;;;;;7.80;4.78;;;13.00;89.90;;;;;;4938185;28;87641;-77
2023/06/16 04:16:14;;;;;;;8.52;5.35;;;13.00;89.60;;;;;;4937245;28;88632;-77
2023/06/16 04:18:40;;;;;;;9.70;5.68;;;13.00;89.80;;;;;;4938124;28;87855;-78
2023/06/16 04:21:06;;;;;;;9.75;5.68;;;13.10;90.30;;;;;;4938870;28;87442;-77
2023/06/16 04:23:33;;;;;;;8.88;5.85;;;13.10;90.80;;;;;;4939348;28;87534;-77
2023/06/16 04:25:58;;;;;;;10.27;6.03;;;13.10;91.30;;;;;;4937840;28;90032;-77
2023/06/16 04:28:25;;;;;;;10.70;6.35;;;13.10;91.10;;;;;;4938270;28;89640;-77
2023/06/16 04:30:51;;;;;;;10.07;6.15;;;13.10;90.70;;;;;;4938020;28;87417;-78
2023/06/16 04:33:22;;;;;;;16.08;6.82;;;13.20;91.30;;;;;;4938614;28;87408;-78
2023/06/16 04:35:50;;;;;;;12.55;6.32;;;13.20;91.00;;;;;;4938098;28;88665;-78
2023/06/16 04:38:16;;;;;;;10.32;6.07;;;13.30;90.60;;;;;;4938888;28;88007;-78
2023/06/16 04:40:43;;;;;;;11.38;6.90;;;13.40;90.50;;;;;;4937872;28;87527;-77
2023/06/16 04:43:08;;;;;;;9.25;6.20;;;13.40;91.30;;;;;;4937031;28;87382;-78
2023/06/16 04:45:34;;;;;;;10.88;6.82;;;13.50;91.10;;;;;;4927339;28;88882;-77
2023/06/16 04:48:00;;;;;;;10.38;5.85;;;13.50;91.60;;;;;;4937548;28;88482;-78
2023/06/16 04:50:25;;;;;;;8.98;6.38;;;13.60;90.60;;;;;;4938458;28;88849;-77
2023/06/16 04:58:00;;;;;;;10.30;6.45;;;13.70;90.50;;;;;;4948641;28;87275;-81
2023/06/16 05:00:29;;;;;;;10.20;6.53;;;13.80;90.80;;;;;;4954203;28;86886;-81
2023/06/16 05:02:54;;;;;;;9.00;5.95;;;13.90;90.90;;;;;;4956712;28;87321;-80
2023/06/16 05:05:25;;;;;;;9.55;5.97;;;14.00;91.00;;;;;;5076564;22;91972;-80
2023/06/16 05:07:51;;;;;;;10.63;6.55;;;14.10;90.40;;;;;;4947995;28;88435;-78
2023/06/16 05:10:17;;;;;;;13.85;6.68;;;14.20;90.20;;;;;;4947390;28;88081;-77
2023/06/16 05:12:42;;;;;;;8.82;5.28;;;14.30;90.00;;;;;;4947286;28;87698;-78
2023/06/16 05:15:09;;;;;;;14.38;6.88;;;14.40;89.40;;;;;;4947417;28;89643;-78
2023/06/16 05:17:36;;;;;;;8.55;6.55;;;14.60;89.50;;;;;;4948176;28;89064;-78
2023/06/16 05:20:02;;;;;;;14.98;7.15;;;14.70;89.10;;;;;;4944581;28;87509;-78
2023/06/16 05:22:27;;;;;;;11.18;6.85;;;14.80;88.90;;;;;;4949227;28;88403;-77
2023/06/16 05:24:54;;;;;;;9.15;6.72;;;14.90;88.30;;;;;;4948196;28;89248;-78
2023/06/16 05:27:22;;;;;;;10.50;7.10;;;15.10;88.90;;;;;;4947090;28;90397;-78
2023/06/16 05:29:52;;;;;;;13.90;8.02;;;15.20;88.00;;;;;;4961822;28;87749;-78
2023/06/16 05:32:19;;;;;;;10.45;7.20;;;15.40;87.80;;;;;;4946877;28;87452;-78
2023/06/16 05:34:46;;;;;;;11.93;7.65;;;15.50;87.10;;;;;;4945302;28;90502;-78
2023/06/16 05:37:15;;;;;;;11.90;7.32;;;15.60;86.40;;;;;;4947698;28;87660;-77
2023/06/16 05:39:45;;;;;;;11.18;7.72;;;15.80;86.10;;;;;;4943151;28;88853;-79
2023/06/16 05:42:11;;;;;;;13.43;8.23;;;15.90;84.30;;;;;;4945242;28;89083;-78
2023/06/16 05:44:37;;;;;;;16.17;8.73;;;16.10;83.60;;;;;;4946245;28;92058;-77
2023/06/16 05:47:03;;;;;;;11.23;8.43;;;16.20;83.30;;;;;;4948455;28;88415;-79
2023/06/16 05:49:29;;;;;;;15.85;8.20;;;16.30;81.50;;;;;;4945531;28;87727;-78
2023/06/16 05:51:57;;;;;;;12.52;9.25;;;16.40;81.00;;;;;;4946689;28;87782;-78
2023/06/16 05:54:22;;;;;;;18.20;8.68;;;16.60;79.00;;;;;;4953025;28;90843;-78
2023/06/16 05:56:48;;;;;;;12.38;7.90;;;16.70;80.00;;;;;;4947213;28;88244;-78
2023/06/16 05:59:14;;;;;;;15.50;8.60;;;16.90;80.00;;;;;;4947805;28;87370;-78
2023/06/16 06:01:39;;;;;;;12.38;9.02;;;17.00;79.70;;;;;;4952725;28;90104;-78
2023/06/16 06:04:05;;;;;;;11.38;7.95;;;17.20;77.40;;;;;;4944533;28;90986;-78
2023/06/16 06:06:30;;;;;;;14.95;9.07;;;17.40;78.00;;;;;;4943597;28;89291;-79
2023/06/16 06:08:56;;;;;;;13.25;8.35;;;17.50;77.70;;;;;;4947565;28;87778;-78
2023/06/16 06:11:22;;;;;;;11.25;7.82;;;17.70;76.40;;;;;;4946892;28;87445;-78
2023/06/16 06:13:48;;;;;;;19.42;8.75;;;17.90;75.10;;;;;;4946432;28;89732;-78
2023/06/16 06:16:13;;;;;;;16.77;7.72;;;18.00;74.70;;;;;;4945808;28;88066;-78
2023/06/16 06:18:43;;;;;;;12.77;7.85;;;18.20;73.00;;;;;;4943230;28;87905;-78
2023/06/16 06:21:09;;;;;;;8.73;6.88;;;18.40;72.50;;;;;;4946263;28;89167;-78
2023/06/16 06:23:34;;;;;;;13.75;8.00;;;18.60;72.10;;;;;;4947024;28;88964;-78
2023/06/16 06:26:00;;;;;;;11.57;7.38;;;18.70;71.40;;;;;;4943314;28;90597;-77
2023/06/16 06:28:25;;;;;;;19.67;8.00;;;18.90;71.30;;;;;;4944685;28;88943;-78
2023/06/16 06:30:51;;;;;;;17.23;8.00;;;19.00;69.20;;;;;;4944365;28;88786;-78
2023/06/16 06:33:17;;;;;;;16.90;7.63;;;19.20;69.70;;;;;;4944082;28;88682;-77
2023/06/16 06:35:42;;;;;;;13.10;7.25;;;19.30;69.20;;;;;;4944827;28;88987;-78
2023/06/16 06:38:08;;;;;;;16.08;7.00;;;19.50;68.20;;;;;;4946989;28;87741;-78
2023/06/16 06:40:35;;;;;;;11.85;6.25;;;19.60;68.40;;;;;;4946465;28;87159;-79
2023/06/16 06:43:01;;;;;;;11.43;6.88;;;19.80;65.50;;;;;;4945098;28;89187;-80
2023/06/16 06:45:26;;;;;;;9.32;6.47;;;19.90;67.40;;;;;;4944700;28;94431;-80
2023/06/16 06:47:52;;;;;;;8.68;5.63;;;20.10;66.40;;;;;;4945553;28;87633;-79
2023/06/16 06:50:18;;;;;;;8.48;5.55;;;20.30;65.30;;;;;;4945640;28;87470;-78
2023/06/16 06:52:43;;;;;;;17.75;6.50;;;20.40;65.20;;;;;;4946217;28;88737;-78
2023/06/16 06:55:09;;;;;;;11.07;6.32;;;20.60;65.60;;;;;;4943878;28;93385;-78
2023/06/16 06:57:35;;;;;;;7.15;5.07;;;20.70;63.20;;;;;;4947783;28;88327;-79
2023/06/16 07:00:00;;;;;;;8.43;5.57;;;20.90;63.70;;;;;;4944749;28;87599;-83
2023/06/16 07:02:26;;;;;;;10.90;6.07;;;21.10;63.20;;;;;;4945538;28;89064;-79
2023/06/16 07:04:51;;;;;;;13.63;6.00;;;21.30;63.00;;;;;;4948526;28;88435;-79
2023/06/16 07:07:17;;;;;;;9.23;5.53;;;21.50;62.00;;;;;;4947827;28;87428;-79
2023/06/16 07:09:43;;;;;;;9.38;4.97;;;21.70;62.20;;;;;;4947541;28;87226;-79
2023/06/16 07:12:09;;;;;;;12.50;7.00;;;21.80;61.30;;;;;;4945822;28;88718;-79
2023/06/16 07:14:35;;;;;;;11.20;6.35;;;22.00;58.40;;;;;;4947992;28;88342;-79
2023/06/16 07:17:02;;;;;;;11.07;5.75;;;22.10;61.60;;;;;;4945156;28;88919;-79
2023/06/16 07:19:28;;;;;;;7.38;4.82;;;22.30;60.00;;;;;;4947125;28;87954;-79
2023/06/16 07:21:54;;;;;;;9.23;5.25;;;22.40;58.80;;;;;;4947507;28;88549;-79
2023/06/16 07:24:21;;;;;;;11.15;5.05;;;22.60;60.30;;;;;;4945631;28;87851;-79
2023/06/16 07:26:47;;;;;;;8.02;4.07;;;22.80;60.20;;;;;;4949373;28;87620;-78
2023/06/16 07:29:12;;;;;;;9.40;4.55;;;22.90;60.10;;;;;;4952277;28;87409;-79
2023/06/16 07:31:38;;;;;;;8.93;4.28;;;23.10;59.20;;;;;;4949155;28;88639;-79
2023/06/16 07:34:04;;;;;;;10.80;5.05;;;23.30;59.10;;;;;;4950156;28;87291;-78
2023/06/16 07:36:31;;;;;;;8.07;4.78;;;23.50;59.40;;;;;;4947166;28;87357;-79
2023/06/16 07:38:56;;;;;;;7.63;4.43;;;23.60;58.50;;;;;;4948866;28;87855;-79
2023/06/16 07:41:22;;;;;;;8.25;4.65;;;23.80;57.00;;;;;;4949368;28;90648;-80
2023/06/16 07:43:48;;;;;;;12.65;4.72;;;23.90;57.40;;;;;;4947833;28;88399;-79
2023/06/16 07:46:14;;;;;;;13.70;4.63;;;24.10;55.80;;;;;;4949368;28;87581;-79
2023/06/16 07:48:40;;;;;;;7.05;3.90;;;24.20;55.80;;;;;;4947746;28;87545;-80
2023/06/16 07:51:06;;;;;;;10.82;4.03;;;24.40;55.70;;;;;;4945893;28;91358;-79
2023/06/16 07:53:31;;;;;;;10.25;4.50;;;24.60;54.40;;;;;;4950419;28;88318;-79
2023/06/16 07:55:57;;;;;;;8.52;4.32;;;24.80;53.90;;;;;;4947535;28;87598;-79
2023/06/16 07:58:23;;;;;;;10.63;3.95;;;25.00;52.70;;;;;;4950820;28;88065;-79
2023/06/16 08:00:51;;;;;;;10.73;4.55;;;25.20;53.50;;;;;;4947699;28;88853;-79
2023/06/16 08:03:18;;;;;;;6.78;3.70;;;25.30;52.00;;;;;;4949955;28;88291;-79
2023/06/16 08:05:44;;;;;;;11.30;3.42;;;25.50;52.70;;;;;;4947373;28;88503;-80
2023/06/16 08:08:09;;;;;;;10.45;4.60;;;25.70;52.80;;;;;;4948764;28;87710;-78
2023/06/16 08:10:35;;;;;;;8.00;3.90;;;25.90;51.00;;;;;;4947610;28;87812;-79
2023/06/16 08:13:00;;;;;;;10.65;4.65;;;26.10;50.90;;;;;;4949748;28;88732;-88
2023/06/16 08:15:26;;;;;;;10.50;3.65;;;26.20;48.60;;;;;;4947363;28;87941;-85
2023/06/16 08:17:52;;;;;;;7.15;4.13;;;26.40;51.20;;;;;;4947140;28;87496;-84
2023/06/16 08:20:18;;;;;;;7.60;3.95;;;26.50;48.70;;;;;;4947926;28;91674;-83
2023/06/16 08:22:44;;;;;;;10.30;3.55;;;26.60;50.20;;;;;;4952003;28;87389;-81
2023/06/16 08:25:09;;;;;;;11.23;3.63;;;26.70;50.80;;;;;;4949089;28;87500;-81
2023/06/16 08:27:35;;;;;;;5.85;3.47;;;27.00;49.80;;;;;;4947372;28;88240;-82
2023/06/16 08:30:03;;;;;;;7.75;3.58;;;27.10;47.60;;;;;;4949032;28;89540;-81
2023/06/16 08:32:29;;;;;;;4.97;3.15;;;27.20;48.10;;;;;;4963787;28;92294;-81
2023/06/16 08:34:55;;;;;;;6.32;3.30;;;27.30;48.60;;;;;;4948549;28;87227;-81
2023/06/16 08:37:22;;;;;;;4.85;3.33;;;27.40;47.90;;;;;;4948628;28;87341;-81
2023/06/16 08:39:48;;;;;;;4.88;3.00;;;27.60;47.60;;;;;;4949901;28;88245;-82
2023/06/16 08:42:15;;;;;;;4.75;3.28;;;27.80;48.20;;;;;;4948847;28;88331;-81
2023/06/16 08:44:43;;;;;;;6.45;3.10;;;28.00;46.10;;;;;;4947171;28;87597;-81
2023/06/16 08:47:09;;;;;;;6.57;3.22;;;28.20;46.50;;;;;;4947449;28;91647;-81
2023/06/16 08:49:35;;;;;;;8.30;3.40;;;28.00;44.00;;;;;;4949850;28;87248;-81
2023/06/16 08:52:02;;;;;;;6.18;3.20;;;28.10;45.60;;;;;;4947792;28;87770;-81
2023/06/16 08:54:34;;;;;;;3.92;2.90;;;28.20;44.10;;;;;;4946654;28;88800;-80
2023/06/16 08:57:03;;;;;;;6.28;3.60;;;28.40;45.60;;;;;;4949523;28;87405;-79
2023/06/16 08:59:30;;;;;;;8.48;3.47;;;28.60;41.70;;;;;;4949315;28;89115;-80
2023/06/16 09:01:59;;;;;;;7.45;3.25;;;28.50;42.60;;;;;;4947254;28;88994;-83
2023/06/16 09:04:24;;;;;;;6.28;2.67;;;28.70;43.80;;;;;;4947180;28;87223;-81
2023/06/16 09:06:55;;;;;;;10.00;3.70;;;29.00;44.00;;;;;;4946985;28;87525;-82
2023/06/16 09:09:22;;;;;;;6.57;3.22;;;29.30;42.00;;;;;;4947752;28;91237;-81
2023/06/16 09:12:10;;;;;;;4.38;3.40;;;29.50;42.20;;;;;;4948135;28;87470;-81
2023/06/16 09:14:41;;;;;;;4.53;3.13;;;29.80;42.10;;;;;;4948572;28;87742;-82
2023/06/16 09:17:09;;;;;;;8.63;3.15;;;30.00;42.00;;;;;;4953066;28;94797;-83
2023/06/16 09:19:48;;;;;;;8.35;3.25;;;30.00;40.90;;;;;;4962388;28;91559;-82
2023/06/16 09:22:18;;;;;;;7.07;3.58;;;30.00;41.20;;;;;;4953578;28;92306;-82
2023/06/16 09:24:51;;;;;;;8.27;3.38;;;29.90;38.80;;;;;;4944517;28;87353;-82
2023/06/16 09:27:18;;;;;;;;;;;29.90;42.30;;;;;;4948516;28;87978;-82
2023/06/16 09:29:50;;;;;;;3.80;2.90;;;30.20;42.80;;;;;;4948189;28;88569;-80
2023/06/16 09:32:16;;;;;;;6.05;3.38;;;30.70;42.90;;;;;;4954834;28;91256;-80
2023/06/16 09:34:45;;;;;;;7.72;3.40;;;30.70;37.50;;;;;;4948038;28;87660;-81
2023/06/16 09:37:11;;;;;;;5.47;3.63;;;30.40;39.40;;;;;;4945639;28;87628;-80
2023/06/16 09:39:36;;;;;;;8.45;3.67;;;30.50;40.10;;;;;;4946620;28;87488;-80
2023/06/16 09:42:02;;;;;;;6.20;3.42;;;30.50;40.20;;;;;;4945645;28;89839;-80
2023/06/16 09:44:30;;;;;;;5.43;3.97;;;30.70;40.40;;;;;;4940076;28;88606;-80
2023/06/16 09:46:58;;;;;;;7.10;3.88;;;31.00;39.50;;;;;;4944916;28;87501;-80
2023/06/16 09:49:25;;;;;;;5.40;3.63;;;31.40;39.60;;;;;;4945833;28;88118;-82
2023/06/16 09:51:55;;;;;;;8.13;4.03;;;31.70;39.70;;;;;;4946371;28;88375;-81
2023/06/16 09:54:22;;;;;;;7.22;3.67;;;31.90;36.10;;;;;;4947680;28;87872;-81
2023/06/16 09:56:48;;;;;;;9.30;3.70;;;32.00;39.60;;;;;;4946747;28;87750;-81
2023/06/16 09:59:15;;;;;;;3.45;2.67;;;32.30;38.00;;;;;;4946584;28;88666;-83
2023/06/16 10:01:43;;;;;;;4.20;3.33;;;32.50;38.60;;;;;;4954624;28;91460;-83
2023/06/16 10:04:15;;;;;;;5.38;3.05;;;32.70;38.10;;;;;;4945462;28;87913;-83
2023/06/16 10:07:04;;;;;;;8.60;3.80;;;32.90;38.10;;;;;;4946061;28;90658;-82
2023/06/16 10:09:41;;;;;;;7.30;3.42;;;33.10;37.10;;;;;;4952927;28;92115;-82
2023/06/16 10:12:11;;;;;;;7.40;3.42;;;33.20;36.60;;;;;;4947921;28;88215;-83
2023/06/16 10:14:39;;;;;;;8.18;3.55;;;33.40;36.80;;;;;;4947075;28;87317;-82
2023/06/16 10:17:09;;;;;;;5.15;2.90;;;33.40;33.00;;;;;;4946280;28;90338;-83
2023/06/16 10:19:37;;;;;;;6.45;3.03;;;33.30;34.80;;;;;;4954309;28;91859;-82
2023/06/16 10:22:04;;;;;;;7.43;3.33;;;33.00;35.70;;;;;;4945704;28;90716;-81
2023/06/16 10:24:30;;;;;;;3.13;2.72;;;32.80;34.20;;;;;;4944404;28;87584;-82
2023/06/16 10:26:57;;;;;;;3.92;2.70;;;32.90;36.80;;;;;;4945405;28;87190;-81
2023/06/16 10:29:25;;;;;;;4.22;2.80;;;33.20;35.60;;;;;;4952722;28;91880;-81
2023/06/16 10:32:10;;;;;;;4.75;2.90;;;33.10;33.80;;;;;;4946274;28;87938;-81
2023/06/16 10:34:56;;;;;;;6.78;3.38;;;32.70;32.40;;;;;;4944186;28;88403;-83
2023/06/16 10:37:23;;;;;;;4.80;2.88;;;32.60;33.80;;;;;;4952884;28;90445;-80
2023/06/16 10:39:54;;;;;;;6.82;2.78;;;32.70;35.60;;;;;;4942988;28;88661;-80
2023/06/16 10:42:20;;;;;;;6.57;2.88;;;33.20;36.50;;;;;;4945775;28;88720;-80
2023/06/16 10:44:45;;;;;;;8.73;2.97;;;33.60;33.90;;;;;;4950262;28;87651;-79
2023/06/16 10:47:11;;;;;;;6.90;3.30;;;33.60;32.90;;;;;;4950049;28;89410;-81
2023/06/16 10:50:03;;;;;;;7.82;3.10;;;33.70;33.30;;;;;;4942000;28;91547;-84
2023/06/16 10:52:30;;;;;;;8.80;2.90;;;33.90;32.90;;;;;;4930635;28;90085;-80
2023/06/16 10:54:56;;;;;;;7.82;3.25;;;34.30;33.60;;;;;;4944805;28;87567;-79
2023/06/16 10:57:25;;;;;;;8.13;2.92;;;34.30;32.60;;;;;;4940124;28;87767;-79
2023/06/16 10:59:57;;;;;;;6.13;2.80;;;34.30;30.70;;;;;;4939664;28;89557;-80
2023/06/16 11:02:33;;;;;;;5.22;2.97;;;34.30;30.80;;;;;;4953686;28;90774;-80
2023/06/16 11:05:08;;;;;;;7.45;3.10;;;34.40;33.20;;;;;;4948382;28;87606;-79
2023/06/16 11:07:58;;;;;;;4.40;2.58;;;34.80;33.30;;;;;;4945587;28;88202;-79
2023/06/16 11:10:24;;;;;;;2.92;2.33;;;35.00;33.30;;;;;;4943110;28;90712;-79
2023/06/16 11:12:50;;;;;;;6.65;3.05;;;35.10;33.80;;;;;;4945096;28;88578;-79
2023/06/16 11:15:16;;;;;;;2.78;2.30;;;35.00;33.30;;;;;;4944907;28;87731;-78
2023/06/16 11:17:49;;;;;;;6.45;3.40;;;35.30;33.20;;;;;;4944978;28;90197;-78
2023/06/16 11:20:16;;;;;;;3.15;2.85;;;35.90;32.90;;;;;;4946791;28;88437;-79
2023/06/16 11:22:45;;;;;;;3.72;2.72;;;35.90;29.90;;;;;;4944209;28;87770;-80
2023/06/16 11:25:12;;;;;;;4.38;3.03;;;35.50;31.50;;;;;;4944042;28;88572;-79
2023/06/16 11:27:38;;;;;;;3.10;2.58;;;35.60;30.80;;;;;;4945094;28;87911;-79
2023/06/16 11:30:08;;;;;;;4.25;2.80;;;35.50;31.90;;;;;;4946687;28;88536;-79
2023/06/16 11:32:36;;;;;;;3.55;2.65;;;35.90;31.00;;;;;;4947403;28;88311;-79
2023/06/16 11:35:03;;;;;;;5.53;2.38;;;35.90;31.70;;;;;;4946116;28;87538;-79
2023/06/16 11:38:02;;;;;;;2.95;2.67;;;35.70;33.40;;;;;;4941711;28;89502;-80
2023/06/16 11:40:32;;;;;;;5.40;2.60;;;35.00;31.90;;;;;;4918714;28;91612;-80
2023/06/16 11:43:03;;;;;;;3.03;2.70;;;34.50;33.40;;;;;;4933208;28;90103;-80
2023/06/16 11:45:31;;;;;;;3.35;2.50;;;34.20;34.10;;;;;;4944236;28;87814;-80
2023/06/16 11:48:01;;;;;;;4.47;2.72;;;33.90;34.60;;;;;;4950452;28;90166;-80
2023/06/16 11:50:27;;;;;;;3.67;2.63;;;33.60;34.70;;;;;;4945347;28;88592;-80
2023/06/16 11:52:53;;;;;;;4.68;2.70;;;33.30;36.00;;;;;;4948562;28;89856;-81
2023/06/16 11:55:19;;;;;;;4.07;2.50;;;33.00;37.00;;;;;;4945811;28;87683;-80
2023/06/16 11:57:46;;;;;;;4.68;2.75;;;32.80;36.80;;;;;;4950129;28;87854;-80
2023/06/16 12:00:13;;;;;;;7.57;3.00;;;32.80;37.20;;;;;;4947317;28;88473;-79
2023/06/16 12:02:40;;;;;;;4.70;2.42;;;33.30;31.80;;;;;;4948913;28;87342;-79
2023/06/16 12:05:12;;;;;;;6.13;2.95;;;33.60;34.40;;;;;;4946182;28;89635;-80
2023/06/16 12:07:38;;;;;;;7.47;3.70;;;33.50;32.40;;;;;;4955035;28;90419;-79
2023/06/16 12:10:05;;;;;;;7.35;3.00;;;33.30;32.20;;;;;;4946990;28;87956;-79
2023/06/16 12:12:31;;;;;;;12.82;3.03;;;33.10;31.80;;;;;;4946087;28;87547;-79
2023/06/16 12:14:59;;;;;;;3.88;2.92;;;33.30;31.00;;;;;;4948768;28;89081;-79
2023/06/16 12:17:25;;;;;;;4.68;3.03;;;33.30;31.10;;;;;;4949808;28;87838;-79
2023/06/16 12:19:52;;;;;;;4.57;2.38;;;33.50;31.00;;;;;;4953286;28;90433;-79
2023/06/16 12:22:18;;;;;;;6.78;2.90;;;33.70;30.90;;;;;;4947643;28;88104;-79
2023/06/16 12:24:43;;;;;;;7.00;3.05;;;34.40;32.70;;;;;;4948444;28;87705;-79
2023/06/16 12:27:20;;;;;;;3.10;2.80;;;35.10;31.20;;;;;;4946425;28;90155;-80
2023/06/16 12:29:46;;;;;;;4.10;2.25;;;35.20;29.90;;;;;;4947331;28;88279;-80
2023/06/16 12:32:12;;;;;;;3.22;2.50;;;35.40;29.50;;;;;;4948583;28;89879;-80
2023/06/16 12:34:37;;;;;;;6.07;2.88;;;35.10;29.00;;;;;;4947977;28;87921;-80
2023/06/16 12:37:13;;;;;;;3.10;2.38;;;34.90;31.10;;;;;;4948167;28;88416;-80
2023/06/16 12:39:42;;;;;;;5.32;2.28;;;35.50;31.90;;;;;;4947420;28;90292;-80
2023/06/16 12:42:10;;;;;;;3.95;3.10;;;35.20;29.80;;;;;;4947243;28;87740;-79
2023/06/16 12:44:42;;;;;;;6.03;2.70;;;34.80;29.90;;;;;;4949690;28;86980;-79
2023/06/16 12:47:08;;;;;;;3.15;2.83;;;35.40;31.20;;;;;;4947589;28;91411;-79
2023/06/16 12:49:34;;;;;;;5.00;2.80;;;35.80;29.90;;;;;;4948113;28;88558;-79
2023/06/16 12:52:01;;;;;;;4.47;2.38;;;35.80;28.10;;;;;;4946299;28;90533;-80
2023/06/16 12:54:27;;;;;;;4.03;2.67;;;35.50;28.00;;;;;;4954382;28;88205;-79